Salt Lake City International Airport Salt Lake City US
ICAO: KSLC
IATA: SLC
Category: Large
Scheduled Services: Yes

Elevation: 4227 ft
TransAlt. 18000 ft.

Airport Communications:
APP/DEP:121.1
ATIS:124.75
CLNC DEL:127.3
GND:121.9
ANG OPS:30.3
CEDAR CITY RDO:122.4
TWR:118.3
UNICOM:122.95

KSLC Zoom In..

If you have problems with the map follow the link
https://www.worldairports.se/pages/airport.php?
ICAO=KSLC

Runways:

(A) RW 14 length 4892 ft width 150 ft
---- / hdg 139

(B) RW 16L length 12004 ft width 150 ft
ILS 109.50 / hdg 161

(C) RW 16R length 12000 ft width 150 ft
ILS 111.90 / hdg 161

(D) RW 17 length 9596 ft width 150 ft
ILS 111.50 / hdg 166

(E) RW 32 length 4892 ft width 150 ft
---- / hdg 319

(F) RW 34L length 12000 ft width 150 ft
ILS 111.90 / hdg 341

(G) RW 34R length 12004 ft width 150 ft
ILS 109.50 / hdg 341

(H) RW 35 length 9596 ft width 150 ft
---- / hdg 346

Location; KSLC
Day. 13 / Time. 13.54 Zulu
* Altimeter: 30.19
* Temperature: 03° c. 37.4°f.
* Wind from: 160° Speed 05 kn.
Dewpoint: 02° c.
Visibility: 10 Statute Miles.
Clouds: Broken 6000 ft.
Clouds: Broken 8000 ft.

KSLC 131354Z 16005KT 10SM BKN060 BKN080 03/02 A3019 RMK AO2 SLP223 T00330022


Wind From 160°
Speed 05 kn.

 
 
jpsmedia worldairports.se 2019   terms of use